Time;durP1;ratioP1;P1;durP2;ratioP2;P2;SDS_P1;SDS_P2;PMS_P1;PMS_P2;Temp;Humidity;BMP_temperature;BMP_pressure;BME280_temperature;BME280_humidity;BME280_pressure;Samples;Min_cycle;Max_cycle;Signal;HPM_P1;HPM_P2
2023/05/05 00:01:43;;;;;;;;;;;;;;;16.73;55.90;101190.34;5021480;28;1086;-62
2023/05/05 00:04:09;;;;;;;;;;;;;;;16.37;56.18;101184.59;5016229;28;1036;-61
2023/05/05 00:06:34;;;;;;;;;;;;;;;16.25;56.07;101195.72;5016289;28;1512;-60
2023/05/05 00:09:00;;;;;;;;;;;;;;;16.12;56.03;101198.91;5018960;28;1214;-60
2023/05/05 00:11:26;;;;;;;;;;;;;;;17.43;54.60;101195.69;5020330;28;1921;-60
2023/05/05 00:13:51;;;;;;;;;;;;;;;17.06;55.15;101195.78;5021312;28;1222;-60
2023/05/05 00:16:16;;;;;;;;;;;;;;;16.58;55.94;101193.00;5019760;28;1009;-60
2023/05/05 00:18:43;;;;;;;;;;;;;;;16.33;56.29;101183.47;5019716;28;1162;-60
2023/05/05 00:21:08;;;;;;;;;;;;;;;16.33;56.49;101183.47;5020196;28;1142;-62
2023/05/05 00:23:34;;;;;;;;;;;;;;;17.73;53.75;101188.63;5019697;28;1131;-60
2023/05/05 00:25:59;;;;;;;;;;;;;;;16.87;55.51;101187.13;5024967;28;1233;-60
2023/05/05 00:28:25;;;;;;;;;;;;;;;16.53;55.91;101184.72;5023167;28;1039;-60
2023/05/05 00:30:50;;;;;;;;;;;;;;;16.31;56.16;101185.63;5020124;28;1965;-62
2023/05/05 00:33:16;;;;;;;;;;;;;;;16.15;55.99;101187.41;5019995;28;1099;-61
2023/05/05 00:35:41;;;;;;;;;;;;;;;16.70;56.15;101182.63;5019794;28;1169;-60
2023/05/05 00:38:07;;;;;;;;;;;;;;;17.56;54.25;101179.78;5023149;28;1099;-62
2023/05/05 00:40:32;;;;;;;;;;;;;;;16.71;55.77;101187.03;5018814;28;1504;-59
2023/05/05 00:42:58;;;;;;;;;;;;;;;16.40;56.01;101175.81;5019844;28;1012;-59
2023/05/05 00:45:24;;;;;;;;;;;;;;;16.18;55.92;101180.59;5019868;28;1063;-59
2023/05/05 00:47:51;;;;;;;;;;;;;;;17.12;55.56;101177.41;5019138;28;1077;-59
2023/05/05 00:50:22;;;;;;;;;;;;;;;17.26;54.63;101173.06;5014788;28;1898;-60
2023/05/05 00:52:48;;;;;;;;;;;;;;;16.56;55.92;101170.44;5016140;28;1063;-58
2023/05/05 00:55:13;;;;;;;;;;;;;;;16.30;56.15;101175.75;5018252;28;1219;-57
2023/05/05 00:57:39;;;;;;;;;;;;;;;16.50;56.46;101177.00;5019399;28;1114;-57
2023/05/05 01:00:04;;;;;;;;;;;;;;;17.69;53.55;101172.94;5018182;28;1044;-57
2023/05/05 01:02:30;;;;;;;;;;;;;;;16.76;55.46;101175.28;5022454;28;1119;-57
2023/05/05 01:04:56;;;;;;;;;;;;;;;16.47;56.00;101172.06;5019499;28;1140;-58
2023/05/05 01:07:24;;;;;;;;;;;;;;;17.39;54.76;101183.59;5034498;28;1507;-58
2023/05/05 01:09:53;;;;;;;;;;;;;;;17.07;55.00;101176.28;5019037;28;1902;-60
2023/05/05 01:12:37;;;;;;;;;;;;;;;16.64;55.69;101191.94;5019320;28;1067;-58
2023/05/05 01:15:09;;;;;;;;;;;;;;;16.33;56.13;101182.66;5029658;28;1031;-63
2023/05/05 01:17:37;;;;;;;;;;;;;;;16.15;55.99;101172.88;5001578;28;1140;-61
2023/05/05 01:20:06;;;;;;;;;;;;;;;16.42;56.12;101176.41;5018593;28;1178;-61
2023/05/05 01:22:41;;;;;;;;;;;;;;;17.67;53.95;101169.63;5033975;28;1114;-60
2023/05/05 01:25:30;;;;;;;;;;;;;;;16.76;55.70;101170.59;5019070;28;1111;-59
2023/05/05 01:28:02;;;;;;;;;;;;;;;16.35;56.05;101159.31;5005821;28;1233;-60
2023/05/05 01:30:31;;;;;;;;;;;;;;;17.33;54.73;101151.66;5018842;28;1981;-58
2023/05/05 01:32:57;;;;;;;;;;;;;;;16.99;55.14;101160.31;5017863;28;1049;-59
2023/05/05 01:35:27;;;;;;;;;;;;;;;16.57;55.81;101152.91;5017727;28;1155;-59
2023/05/05 01:38:02;;;;;;;;;;;;;;;16.32;55.83;101154.34;5001841;28;1180;-59
2023/05/05 01:40:29;;;;;;;;;;;;;;;17.03;55.31;101153.19;5007700;28;1099;-59
2023/05/05 01:42:54;;;;;;;;;;;;;;;17.09;55.04;101154.84;5018542;28;1120;-58
2023/05/05 01:45:20;;;;;;;;;;;;;;;16.63;55.74;101153.75;5033970;28;1383;-59
2023/05/05 01:47:46;;;;;;;;;;;;;;;16.30;56.15;101142.81;5018338;28;1223;-59
2023/05/05 01:50:12;;;;;;;;;;;;;;;17.07;55.44;101159.81;5019623;28;1910;-59
2023/05/05 01:52:37;;;;;;;;;;;;;;;17.07;54.89;101157.06;5004873;28;1103;-59
2023/05/05 01:55:03;;;;;;;;;;;;;;;16.55;55.86;101155.06;5017139;28;1060;-60
2023/05/05 01:57:30;;;;;;;;;;;;;;;16.31;56.01;101146.38;5016824;28;1061;-59
2023/05/05 01:59:56;;;;;;;;;;;;;;;16.22;55.80;101140.56;5000908;28;1107;-59
2023/05/05 02:02:21;;;;;;;;;;;;;;;17.46;54.45;101147.59;5015619;28;1259;-59
2023/05/05 02:04:47;;;;;;;;;;;;;;;16.96;55.40;101136.13;5016809;28;1071;-59
2023/05/05 02:07:12;;;;;;;;;;;;;;;16.58;55.59;101140.84;5016926;28;1136;-59
2023/05/05 02:09:38;;;;;;;;;;;;;;;16.28;56.02;101134.00;5013812;28;1063;-59
2023/05/05 02:12:03;;;;;;;;;;;;;;;17.47;54.56;101132.72;5045165;28;1971;-59
2023/05/05 02:14:29;;;;;;;;;;;;;;;16.87;55.45;101138.53;5019085;28;1072;-58
2023/05/05 02:16:55;;;;;;;;;;;;;;;16.56;55.61;101140.25;5022775;28;1016;-60
2023/05/05 02:19:21;;;;;;;;;;;;;;;16.25;56.16;101131.81;5017512;28;1079;-61
2023/05/05 02:21:47;;;;;;;;;;;;;;;16.19;55.82;101132.88;5016239;28;1186;-59
2023/05/05 02:24:13;;;;;;;;;;;;;;;17.53;54.12;101139.06;5016253;28;1056;-59
2023/05/05 02:26:39;;;;;;;;;;;;;;;17.04;54.99;101135.63;5032892;28;1555;-59
2023/05/05 02:29:06;;;;;;;;;;;;;;;16.60;55.95;101138.63;5016815;28;1183;-60
2023/05/05 02:31:32;;;;;;;;;;;;;;;16.36;56.15;101144.50;5016586;28;1914;-60
2023/05/05 02:33:58;;;;;;;;;;;;;;;16.29;56.06;101138.41;5016184;28;1986;-60
2023/05/05 02:36:26;;;;;;;;;;;;;;;17.63;54.03;101147.34;5017806;28;1314;-60
2023/05/05 02:39:00;;;;;;;;;;;;;;;16.87;55.22;101143.19;5017012;28;1266;-58
2023/05/05 02:41:27;;;;;;;;;;;;;;;16.44;56.12;101151.44;5016691;28;1135;-59
2023/05/05 02:43:53;;;;;;;;;;;;;;;16.25;55.93;101142.78;5026096;28;1060;-59
2023/05/05 02:46:20;;;;;;;;;;;;;;;16.12;56.02;101137.72;5016329;28;1198;-60
2023/05/05 02:48:46;;;;;;;;;;;;;;;17.18;55.08;101146.09;5016161;28;1249;-59
2023/05/05 02:51:12;;;;;;;;;;;;;;;17.13;54.63;101138.66;5015737;28;1914;-60
2023/05/05 02:53:37;;;;;;;;;;;;;;;16.57;56.06;101144.66;5017372;28;1050;-58
2023/05/05 02:56:15;;;;;;;;;;;;;;;16.29;56.08;101149.41;5017342;28;1223;-57
2023/05/05 02:59:05;;;;;;;;;;;;;;;16.35;56.29;101142.84;5016895;28;1136;-57
2023/05/05 03:01:34;;;;;;;;;;;;;;;17.54;53.85;101144.28;5004563;28;1111;-55
2023/05/05 03:04:11;;;;;;;;;;;;;;;16.69;55.59;101152.69;5041689;28;1610;-56
2023/05/05 03:06:42;;;;;;;;;;;;;;;16.36;56.04;101155.47;5032535;28;1214;-57
2023/05/05 03:09:10;;;;;;;;;;;;;;;16.41;56.49;101150.03;5032449;28;1155;-59
2023/05/05 03:11:38;;;;;;;;;;;;;;;17.57;53.78;101153.94;5017249;28;1973;-58
2023/05/05 03:14:08;;;;;;;;;;;;;;;16.74;55.68;101159.03;4999872;28;1158;-56
2023/05/05 03:16:37;;;;;;;;;;;;;;;16.41;55.92;101152.78;5027420;28;1166;-53
2023/05/05 03:19:03;;;;;;;;;;;;;;;16.20;56.11;101146.31;5016557;28;1130;-52
2023/05/05 03:21:29;;;;;;;;;;;;;;;16.07;55.83;101157.72;4999027;28;1406;-57
2023/05/05 03:23:54;;;;;;;;;;;;;;;15.97;56.10;101169.41;4999383;28;1244;-59
2023/05/05 03:26:21;;;;;;;;;;;;;;;17.18;54.91;101165.34;5015646;28;1199;-59
2023/05/05 03:28:46;;;;;;;;;;;;;;;16.99;55.04;101173.22;5022496;28;868;-58
2023/05/05 03:31:20;;;;;;;;;;;;;;;16.43;56.01;101166.25;5015578;28;1918;-58
2023/05/05 03:33:50;;;;;;;;;;;;;;;16.21;56.17;101166.34;5032010;28;1158;-58
2023/05/05 03:36:18;;;;;;;;;;;;;;;17.65;53.67;101174.59;5019355;28;1163;-58
2023/05/05 03:38:44;;;;;;;;;;;;;;;16.90;55.20;101184.72;5019409;28;1175;-58
2023/05/05 03:41:10;;;;;;;;;;;;;;;16.50;55.94;101177.00;5010846;28;1213;-59
2023/05/05 03:43:38;;;;;;;;;;;;;;;16.25;56.06;101183.94;5004668;28;1655;-59
2023/05/05 03:46:04;;;;;;;;;;;;;;;16.60;56.14;101185.31;5014745;28;1166;-61
2023/05/05 03:48:30;;;;;;;;;;;;;;;17.50;53.79;101180.84;5015457;28;1480;-60
2023/05/05 03:50:56;;;;;;;;;;;;;;;16.71;55.45;101180.72;5014790;28;1910;-61
2023/05/05 03:53:24;;;;;;;;;;;;;;;16.37;55.92;101187.34;5028160;28;1179;-61
2023/05/05 03:55:51;;;;;;;;;;;;;;;16.27;55.64;101195.50;5015031;28;1205;-61
2023/05/05 03:58:16;;;;;;;;;;;;;;;16.99;55.41;101197.94;5014486;28;1139;-62
2023/05/05 04:00:42;;;;;;;;;;;;;;;17.15;54.63;101201.59;5015358;28;1278;-62
2023/05/05 04:03:09;;;;;;;;;;;;;;;16.53;55.76;101196.50;5016157;28;1204;-60
2023/05/05 04:05:35;;;;;;;;;;;;;;;16.29;56.09;101198.78;5020861;28;1118;-61
2023/05/05 04:08:02;;;;;;;;;;;;;;;16.29;56.37;101198.78;5015114;28;1215;-60
2023/05/05 04:10:28;;;;;;;;;;;;;;;17.68;53.52;101196.03;5014841;28;1923;-59
2023/05/05 04:12:54;;;;;;;;;;;;;;;16.78;55.60;101206.03;5014851;28;1144;-59
2023/05/05 04:15:19;;;;;;;;;;;;;;;16.46;55.96;101204.13;5016652;28;1214;-59
2023/05/05 04:17:45;;;;;;;;;;;;;;;16.26;55.90;101202.06;5026292;28;1034;-59
2023/05/05 04:20:11;;;;;;;;;;;;;;;16.82;55.47;101200.84;5014831;28;1128;-58
2023/05/05 04:22:36;;;;;;;;;;;;;;;17.49;53.95;101196.53;5015166;28;1174;-60
2023/05/05 04:25:02;;;;;;;;;;;;;;;16.80;55.41;101194.78;5016297;28;1071;-61
2023/05/05 04:27:29;;;;;;;;;;;;;;;16.40;55.96;101184.06;5017107;28;1297;-60
2023/05/05 04:29:56;;;;;;;;;;;;;;;16.23;56.03;101184.19;5022691;28;1142;-61
2023/05/05 04:32:22;;;;;;;;;;;;;;;17.39;54.37;101188.22;5015200;28;1107;-62
2023/05/05 04:34:48;;;;;;;;;;;;;;;17.16;54.50;101182.09;5015047;28;1120;-60
2023/05/05 04:37:15;;;;;;;;;;;;;;;16.67;55.35;101185.91;5019582;28;1230;-59
2023/05/05 04:39:40;;;;;;;;;;;;;;;16.35;55.92;101175.78;5017405;28;1142;-60
2023/05/05 04:42:06;;;;;;;;;;;;;;;16.25;55.93;101175.72;5015924;28;1389;-60
2023/05/05 04:44:34;;;;;;;;;;;;;;;16.92;55.46;101184.44;5016295;28;1261;-60
2023/05/05 04:47:00;;;;;;;;;;;;;;;17.09;54.76;101174.09;5014556;28;1340;-60
2023/05/05 04:49:28;;;;;;;;;;;;;;;16.52;55.96;101172.06;5016108;28;1067;-59
2023/05/05 04:51:54;;;;;;;;;;;;;;;16.29;56.10;101165.88;5019921;28;1910;-59
2023/05/05 04:54:20;;;;;;;;;;;;;;;16.99;55.37;101167.75;5023239;28;1130;-59
2023/05/05 04:56:45;;;;;;;;;;;;;;;17.45;53.74;101166.00;5019370;28;1078;-59
2023/05/05 04:59:11;;;;;;;;;;;;;;;16.68;55.60;101173.03;5019327;28;1218;-59
2023/05/05 05:01:37;;;;;;;;;;;;;;;16.39;56.05;101165.13;5018088;28;1123;-59
2023/05/05 05:04:03;;;;;;;;;;;;;;;17.59;53.36;101171.00;5023746;28;1011;-59
2023/05/05 05:06:29;;;;;;;;;;;;;;;16.52;54.16;101172.06;5020127;28;1147;-59
2023/05/05 05:08:54;;;;;;;;;;;;;;;16.21;52.15;101167.16;5017751;28;1223;-59
2023/05/05 05:11:20;;;;;;;;;;;;;;;16.06;51.16;101173.34;5017478;28;1902;-60
2023/05/05 05:13:46;;;;;;;;;;;;;;;16.59;53.48;101176.25;5019147;28;1084;-59
2023/05/05 05:16:12;;;;;;;;;;;;;;;16.17;52.16;101176.19;5024582;28;1004;-62
2023/05/05 05:18:38;;;;;;;;;;;;;;;16.13;50.77;101177.78;5007802;28;1229;-62
2023/05/05 05:21:03;;;;;;;;;;;;;;;17.13;52.75;101177.13;5028939;28;1209;-62
2023/05/05 05:23:29;;;;;;;;;;;;;;;16.32;52.33;101176.31;5017853;28;1371;-62
2023/05/05 05:25:55;;;;;;;;;;;;;;;16.07;51.32;101171.44;5017842;28;1247;-61
2023/05/05 05:28:21;;;;;;;;;;;;;;;15.96;49.91;101170.50;5004299;28;1133;-61
2023/05/05 05:30:52;;;;;;;;;;;;;;;16.80;52.08;101172.81;5017123;28;1906;-61
2023/05/05 05:33:18;;;;;;;;;;;;;;;16.37;51.72;101184.59;5017612;28;1235;-61
2023/05/05 05:35:44;;;;;;;;;;;;;;;16.10;50.74;101178.31;5018725;28;1118;-61
2023/05/05 05:38:10;;;;;;;;;;;;;;;15.97;49.63;101180.38;5018456;28;1246;-61
2023/05/05 05:40:35;;;;;;;;;;;;;;;16.81;51.66;101183.53;5025106;28;1104;-60
2023/05/05 05:43:02;;;;;;;;;;;;;;;16.24;51.30;101190.50;5020550;28;1800;-61
2023/05/05 05:45:28;;;;;;;;;;;;;;;16.25;50.29;101190.25;5017557;28;1262;-61
2023/05/05 05:47:53;;;;;;;;;;;;;;;16.95;51.64;101197.66;5017414;28;1174;-60
2023/05/05 05:50:19;;;;;;;;;;;;;;;16.46;51.02;101189.59;5018271;28;1910;-60
2023/05/05 05:52:45;;;;;;;;;;;;;;;17.17;51.62;101196.69;5020696;28;1181;-61
2023/05/05 05:55:10;;;;;;;;;;;;;;;16.81;52.19;101199.19;5018178;28;1070;-60
2023/05/05 05:57:37;;;;;;;;;;;;;;;16.52;50.87;101194.88;5017008;28;1247;-57
2023/05/05 06:00:05;;;;;;;;;;;;;;;16.35;50.02;101199.66;5017367;28;1143;-59
2023/05/05 06:02:37;;;;;;;;;;;;;;;16.15;49.29;101197.56;5017586;28;1025;-58
2023/05/05 06:05:03;;;;;;;;;;;;;;;16.95;50.74;101205.88;5024757;28;1365;-58
2023/05/05 06:07:29;;;;;;;;;;;;;;;16.56;51.29;101208.88;5018623;28;1159;-58
2023/05/05 06:09:55;;;;;;;;;;;;;;;16.31;50.14;101204.84;5016895;28;1130;-58
2023/05/05 06:12:21;;;;;;;;;;;;;;;16.25;49.09;101197.66;5015941;28;1914;-57
2023/05/05 06:14:46;;;;;;;;;;;;;;;16.77;50.29;101202.47;5016953;28;1232;-58
2023/05/05 06:17:12;;;;;;;;;;;;;;;16.92;50.81;101206.44;5021599;28;1326;-57
2023/05/05 06:19:39;;;;;;;;;;;;;;;16.51;50.39;101206.09;5016294;28;1107;-55
2023/05/05 06:22:06;;;;;;;;;;;;;;;16.19;49.62;101210.50;5016191;28;1202;-57
2023/05/05 06:24:32;;;;;;;;;;;;;;;16.65;50.19;101218.31;5016461;28;1370;-58
2023/05/05 06:26:58;;;;;;;;;;;;;;;16.64;50.39;101211.16;5034231;28;1359;-56
2023/05/05 06:29:24;;;;;;;;;;;;;;;16.37;49.74;101213.97;5026531;28;1230;-59
2023/05/05 06:31:50;;;;;;;;;;;;;;;16.08;49.19;101212.31;5035010;28;1906;-57
2023/05/05 06:34:15;;;;;;;;;;;;;;;17.25;50.11;101220.88;5036424;28;1023;-58
2023/05/05 06:36:41;;;;;;;;;;;;;;;16.65;50.17;101212.81;5035911;28;1153;-57
2023/05/05 06:39:06;;;;;;;;;;;;;;;16.33;49.69;101224.63;5037164;28;1122;-57
2023/05/05 06:41:32;;;;;;;;;;;;;;;17.22;50.13;101221.41;5036266;28;1030;-58
2023/05/05 06:43:57;;;;;;;;;;;;;;;16.76;50.52;101225.53;5036579;28;1035;-57
2023/05/05 06:46:23;;;;;;;;;;;;;;;16.44;49.55;101233.78;5023873;28;1324;-58
2023/05/05 06:48:49;;;;;;;;;;;;;;;16.23;49.12;101222.63;5036891;28;1114;-58
2023/05/05 06:51:15;;;;;;;;;;;;;;;16.12;48.34;101229.09;5024666;28;1954;-57
2023/05/05 06:53:40;;;;;;;;;;;;;;;16.71;50.13;101221.91;5024830;28;826;-59
2023/05/05 06:56:06;;;;;;;;;;;;;;;16.50;50.06;101223.69;5028556;28;1091;-56
2023/05/05 06:58:31;;;;;;;;;;;;;;;18.10;49.96;101225.31;5018757;28;1152;-58
2023/05/05 07:00:57;;;;;;;;;;;;;;;17.04;51.16;101226.28;5036396;28;1019;-57
2023/05/05 07:03:22;;;;;;;;;;;;;;;16.69;50.18;101224.06;5025786;28;1214;-57
2023/05/05 07:05:48;;;;;;;;;;;;;;;16.45;49.26;101229.13;5033431;28;1015;-57
2023/05/05 07:08:13;;;;;;;;;;;;;;;16.38;48.53;101230.16;5036569;28;1058;-57
2023/05/05 07:10:39;;;;;;;;;;;;;;;16.28;47.99;101235.53;5023365;28;1984;-57
2023/05/05 07:13:05;;;;;;;;;;;;;;;17.05;49.69;101238.91;5036444;28;1031;-59
2023/05/05 07:15:31;;;;;;;;;;;;;;;16.54;50.15;101244.84;5023374;28;1119;-60
2023/05/05 07:17:56;;;;;;;;;;;;;;;16.35;49.05;101236.16;5035372;28;893;-60
2023/05/05 07:20:22;;;;;;;;;;;;;;;16.25;48.31;101241.56;5023413;28;1158;-60
2023/05/05 07:22:48;;;;;;;;;;;;;;;17.51;49.45;101240.25;5036488;28;1051;-60
2023/05/05 07:25:13;;;;;;;;;;;;;;;16.85;50.31;101244.25;5022790;28;1145;-61
2023/05/05 07:27:38;;;;;;;;;;;;;;;16.48;49.78;101245.06;5036108;28;1070;-58
2023/05/05 07:30:04;;;;;;;;;;;;;;;16.35;48.62;101240.81;5031933;28;1119;-58
2023/05/05 07:32:30;;;;;;;;;;;;;;;17.10;49.60;101241.69;5026285;28;1210;-60
2023/05/05 07:34:55;;;;;;;;;;;;;;;16.47;49.66;101243.41;5023034;28;1138;-60
2023/05/05 07:37:21;;;;;;;;;;;;;;;16.31;48.90;101240.50;5035181;28;1166;-57
2023/05/05 07:39:48;;;;;;;;;;;;;;;16.31;48.53;101237.75;5023018;28;1135;-59
2023/05/05 07:42:14;;;;;;;;;;;;;;;16.91;49.57;101243.22;5035373;28;864;-59
2023/05/05 07:44:39;;;;;;;;;;;;;;;16.45;49.29;101245.59;5022492;28;1206;-58
2023/05/05 07:47:05;;;;;;;;;;;;;;;16.31;48.57;101246.00;5035896;28;1224;-58
2023/05/05 07:49:30;;;;;;;;;;;;;;;16.22;47.90;101242.09;5035963;28;1058;-59
2023/05/05 07:51:56;;;;;;;;;;;;;;;16.77;48.52;101248.31;5026582;28;1914;-59
2023/05/05 07:54:22;;;;;;;;;;;;;;;16.66;48.87;101250.16;5029050;28;1063;-59
2023/05/05 07:56:47;;;;;;;;;;;;;;;16.26;48.62;101245.97;5025678;28;1077;-58
2023/05/05 07:59:13;;;;;;;;;;;;;;;16.95;48.51;101249.03;5034473;28;1031;-59
2023/05/05 08:01:38;;;;;;;;;;;;;;;16.93;49.76;101252.03;5025993;28;1055;-57
2023/05/05 08:04:04;;;;;;;;;;;;;;;16.46;49.36;101247.25;5035442;28;1083;-58
2023/05/05 08:06:30;;;;;;;;;;;;;;;16.25;48.90;101249.78;5026160;28;892;-60
2023/05/05 08:08:56;;;;;;;;;;;;;;;17.07;49.16;101247.72;5029759;28;1158;-61
2023/05/05 08:11:21;;;;;;;;;;;;;;;16.42;49.50;101245.03;5025411;28;1977;-61
2023/05/05 08:13:47;;;;;;;;;;;;;;;16.52;49.08;101246.19;5035723;28;1239;-61
2023/05/05 08:16:13;;;;;;;;;;;;;;;17.20;49.38;101251.09;5026750;28;1103;-61
2023/05/05 08:18:39;;;;;;;;;;;;;;;16.55;49.19;101248.41;5028855;28;1151;-61
2023/05/05 08:21:05;;;;;;;;;;;;;;;16.43;48.54;101252.16;5025364;28;1094;-60
2023/05/05 08:23:30;;;;;;;;;;;;;;;16.37;47.82;101247.72;5022826;28;1146;-60
2023/05/05 08:25:56;;;;;;;;;;;;;;;16.18;47.44;101244.50;5035565;28;1063;-61
2023/05/05 08:28:22;;;;;;;;;;;;;;;17.53;48.52;101246.31;5022774;28;1163;-61
2023/05/05 08:30:48;;;;;;;;;;;;;;;16.65;49.48;101240.28;5038793;28;1977;-60
2023/05/05 08:33:14;;;;;;;;;;;;;;;16.43;48.63;101243.09;5036371;28;1187;-61
2023/05/05 08:35:41;;;;;;;;;;;;;;;16.43;48.29;101243.09;5029822;28;1073;-60
2023/05/05 08:38:06;;;;;;;;;;;;;;;16.95;49.39;101236.09;5038012;28;1522;-60
2023/05/05 08:40:35;;;;;;;;;;;;;;;16.55;48.91;101241.00;5039184;28;1166;-61
2023/05/05 08:43:00;;;;;;;;;;;;;;;16.29;48.29;101237.22;5037444;28;1072;-61
2023/05/05 08:45:27;;;;;;;;;;;;;;;16.18;47.76;101228.06;5039372;28;1026;-60
2023/05/05 08:47:53;;;;;;;;;;;;;;;16.37;48.26;101234.00;5035411;28;1250;-61
2023/05/05 08:50:19;;;;;;;;;;;;;;;16.77;48.91;101229.09;5028545;28;1906;-61
2023/05/05 08:52:44;;;;;;;;;;;;;;;16.50;48.37;101231.91;5034821;28;1028;-61
2023/05/05 08:55:14;;;;;;;;;;;;;;;16.56;48.68;101231.69;5027904;28;886;-62
2023/05/05 08:58:01;;;;;;;;;;;;;;;16.82;48.93;101228.31;5038575;28;1520;-61
2023/05/05 09:00:27;;;;;;;;;;;;;;;16.40;48.35;101227.97;5038733;28;1027;-61
2023/05/05 09:02:53;;;;;;;;;;;;;;;16.33;47.79;101221.88;5038486;28;1019;-61
2023/05/05 09:05:19;;;;;;;;;;;;;;;16.20;47.29;101216.81;5039194;28;1035;-61
2023/05/05 09:07:46;;;;;;;;;;;;;;;17.09;48.46;101223.53;5036993;28;1065;-61
2023/05/05 09:10:11;;;;;;;;;;;;;;;16.47;48.40;101211.28;5038794;28;1906;-61
2023/05/05 09:12:40;;;;;;;;;;;;;;;17.24;48.86;101213.75;5031970;28;965;-63
2023/05/05 09:15:09;;;;;;;;;;;;;;;16.99;49.32;101212.50;5032495;28;1126;-62
2023/05/05 09:17:35;;;;;;;;;;;;;;;16.60;49.03;101204.53;5025752;28;1115;-59
2023/05/05 09:20:02;;;;;;;;;;;;;;;16.55;47.86;101198.97;5025629;28;1134;-58
2023/05/05 09:22:32;;;;;;;;;;;;;;;17.29;48.85;101211.00;5038408;28;1050;-58
2023/05/05 09:24:57;;;;;;;;;;;;;;;16.58;49.10;101202.03;5038335;28;1129;-61
2023/05/05 09:27:23;;;;;;;;;;;;;;;16.53;48.26;101201.19;5030511;28;1151;-59
2023/05/05 09:29:49;;;;;;;;;;;;;;;16.35;47.90;101202.41;5031527;28;1143;-58
2023/05/05 09:32:15;;;;;;;;;;;;;;;17.27;48.60;101200.28;5027219;28;1991;-58
2023/05/05 09:34:40;;;;;;;;;;;;;;;16.75;49.04;101190.91;5038414;28;1110;-59
2023/05/05 09:37:06;;;;;;;;;;;;;;;16.42;48.69;101192.03;5029669;28;1154;-59
2023/05/05 09:39:31;;;;;;;;;;;;;;;16.36;48.08;101188.41;5031104;28;1345;-61
2023/05/05 09:41:57;;;;;;;;;;;;;;;16.30;47.27;101192.22;5026641;28;1088;-61
2023/05/05 09:44:35;;;;;;;;;;;;;;;16.92;47.87;101184.44;5036564;28;1030;-58
2023/05/05 09:47:01;;;;;;;;;;;;;;;16.95;48.57;101180.34;5018507;28;1052;-56
2023/05/05 09:49:26;;;;;;;;;;;;;;;16.47;48.53;101181.09;5033245;28;1020;-58
2023/05/05 09:51:52;;;;;;;;;;;;;;;16.59;48.51;101183.66;5037621;28;1963;-60
2023/05/05 09:54:28;;;;;;;;;;;;;;;16.93;48.85;101186.94;5037695;28;1062;-61
2023/05/05 09:56:54;;;;;;;;;;;;;;;16.58;48.16;101182.00;5038011;28;999;-58
2023/05/05 09:59:19;;;;;;;;;;;;;;;16.42;47.66;101184.66;5037607;28;1039;-59
2023/05/05 10:01:45;;;;;;;;;;;;;;;16.38;47.12;101180.75;5037887;28;1026;-60
2023/05/05 10:04:24;;;;;;;;;;;;;;;16.32;46.92;101176.31;5024997;28;1221;-61
2023/05/05 10:06:49;;;;;;;;;;;;;;;17.07;48.13;101187.28;5037050;28;1139;-60
2023/05/05 10:09:15;;;;;;;;;;;;;;;16.71;49.17;101177.97;5037165;28;1007;-59
2023/05/05 10:11:41;;;;;;;;;;;;;;;16.48;48.53;101176.44;5026167;28;1977;-60
2023/05/05 10:14:06;;;;;;;;;;;;;;;16.49;48.54;101180.84;5031147;28;1274;-61
2023/05/05 10:16:32;;;;;;;;;;;;;;;16.99;48.87;101184.22;5029689;28;1099;-60
2023/05/05 10:18:58;;;;;;;;;;;;;;;16.47;48.74;101181.09;5031672;28;1121;-60
2023/05/05 10:21:24;;;;;;;;;;;;;;;16.40;47.96;101175.81;5028715;28;1032;-61
2023/05/05 10:24:09;;;;;;;;;;;;;;;16.30;47.39;101170.28;5037183;28;1008;-60
2023/05/05 10:26:36;;;;;;;;;;;;;;;16.21;47.00;101160.84;5037336;28;1117;-62
2023/05/05 10:29:02;;;;;;;;;;;;;;;17.19;48.45;101173.31;5036086;28;1028;-61
2023/05/05 10:31:29;;;;;;;;;;;;;;;16.63;48.50;101170.22;5022735;28;1910;-60
2023/05/05 10:33:58;;;;;;;;;;;;;;;16.32;48.41;101170.00;5036116;28;1130;-60
2023/05/05 10:36:23;;;;;;;;;;;;;;;16.23;47.56;101162.25;5035766;28;1110;-61
2023/05/05 10:38:49;;;;;;;;;;;;;;;17.22;48.40;101161.81;5027363;28;1147;-61
2023/05/05 10:41:15;;;;;;;;;;;;;;;16.67;48.95;101166.69;5031510;28;1097;-61
2023/05/05 10:43:40;;;;;;;;;;;;;;;16.41;48.43;101161.03;5035196;28;848;-59
2023/05/05 10:46:06;;;;;;;;;;;;;;;16.32;47.76;101157.09;5023508;28;1053;-57
2023/05/05 10:48:32;;;;;;;;;;;;;;;17.38;48.09;101154.44;5037233;28;1059;-57
2023/05/05 10:51:00;;;;;;;;;;;;;;;16.65;48.64;101149.66;5036569;28;1905;-57
2023/05/05 10:53:38;;;;;;;;;;;;;;;16.50;48.10;101146.81;5036644;28;1145;-57
2023/05/05 10:56:14;;;;;;;;;;;;;;;17.07;48.83;101143.31;5031094;28;1084;-58
2023/05/05 10:58:40;;;;;;;;;;;;;;;16.60;48.88;101149.63;5028278;28;1175;-57
2023/05/05 11:01:06;;;;;;;;;;;;;;;16.43;48.08;101147.84;5030678;28;1073;-57
2023/05/05 11:03:31;;;;;;;;;;;;;;;16.42;47.86;101145.38;5029812;28;1076;-56
2023/05/05 11:06:03;;;;;;;;;;;;;;;17.13;48.54;101140.59;5022646;28;1131;-59
2023/05/05 11:08:29;;;;;;;;;;;;;;;16.66;48.75;101148.56;5036405;28;921;-57
2023/05/05 11:10:54;;;;;;;;;;;;;;;16.42;48.00;101134.41;5029288;28;1926;-56
2023/05/05 11:13:20;;;;;;;;;;;;;;;16.37;47.19;101124.22;5029491;28;1116;-60
2023/05/05 11:15:46;;;;;;;;;;;;;;;16.25;47.05;101120.81;5036447;28;1063;-58
2023/05/05 11:18:28;;;;;;;;;;;;;;;17.21;48.24;101112.59;5024443;28;1186;-57
2023/05/05 11:21:03;;;;;;;;;;;;;;;16.62;48.40;101120.00;5013226;28;1084;-58
2023/05/05 11:23:28;;;;;;;;;;;;;;;16.75;48.70;101107.69;5022932;28;1135;-60
2023/05/05 11:25:54;;;;;;;;;;;;;;;16.93;49.11;101104.53;5026876;28;1220;-60
2023/05/05 11:28:22;;;;;;;;;;;;;;;16.62;48.55;101105.41;5032575;28;1075;-59
2023/05/05 11:30:53;;;;;;;;;;;;;;;16.42;48.03;101096.81;5035898;28;1979;-58
2023/05/05 11:33:25;;;;;;;;;;;;;;;16.39;47.18;101094.56;5023130;28;1181;-57
2023/05/05 11:35:58;;;;;;;;;;;;;;;17.04;48.58;101088.91;5036032;28;1082;-58
2023/05/05 11:38:43;;;;;;;;;;;;;;;16.59;48.32;101088.41;5035524;28;1225;-57
2023/05/05 11:41:13;;;;;;;;;;;;;;;17.02;48.31;101085.59;5024352;28;1226;-56
2023/05/05 11:43:39;;;;;;;;;;;;;;;16.96;49.02;101081.19;5023753;28;1473;-59
2023/05/05 11:46:14;;;;;;;;;;;;;;;16.72;48.42;101075.28;5029093;28;1026;-60
2023/05/05 11:48:46;;;;;;;;;;;;;;;16.53;47.79;101067.47;5026355;28;1051;-59
2023/05/05 11:51:12;;;;;;;;;;;;;;;17.23;48.56;101060.94;5022686;28;1906;-58
2023/05/05 11:53:45;;;;;;;;;;;;;;;16.67;48.52;101056.84;5025167;28;1110;-58
2023/05/05 11:56:11;;;;;;;;;;;;;;;16.60;47.59;101057.09;5028999;28;1221;-59
2023/05/05 11:58:37;;;;;;;;;;;;;;;17.83;47.62;101047.53;5028532;28;1051;-58
2023/05/05 12:01:06;;;;;;;;;;;;;;;16.96;48.76;101041.88;5035909;28;1058;-57
2023/05/05 12:03:35;;;;;;;;;;;;;;;16.68;48.31;101042.03;5037349;28;1031;-58
2023/05/05 12:06:04;;;;;;;;;;;;;;;17.06;48.70;101036.44;5032986;28;1083;-59
2023/05/05 12:08:36;;;;;;;;;;;;;;;17.13;49.06;101036.19;5031724;28;896;-60
2023/05/05 12:11:09;;;;;;;;;;;;;;;16.74;48.58;101035.47;5033292;28;1918;-59
2023/05/05 12:13:35;;;;;;;;;;;;;;;16.70;47.71;101028.84;5033311;28;1111;-58
2023/05/05 12:16:10;;;;;;;;;;;;;;;16.58;47.14;101020.03;5028418;28;1088;-59
2023/05/05 12:18:36;;;;;;;;;;;;;;;17.31;48.04;101027.44;5039884;28;1109;-61
2023/05/05 12:21:02;;;;;;;;;;;;;;;16.82;48.55;101016.84;5039424;28;854;-61
2023/05/05 12:23:29;;;;;;;;;;;;;;;16.56;48.09;101008.47;5035264;28;1102;-61
2023/05/05 12:25:54;;;;;;;;;;;;;;;16.49;47.65;101000.47;5029821;28;1131;-61
2023/05/05 12:28:20;;;;;;;;;;;;;;;16.54;47.71;100999.69;5036387;28;1137;-62
2023/05/05 12:30:58;;;;;;;;;;;;;;;16.87;48.22;101000.34;5029458;28;1910;-61
2023/05/05 12:33:23;;;;;;;;;;;;;;;16.56;47.98;101000.25;5039762;28;944;-58
2023/05/05 12:35:49;;;;;;;;;;;;;;;16.39;47.47;100995.78;5038007;28;1071;-59
2023/05/05 12:38:15;;;;;;;;;;;;;;;16.31;47.23;100985.28;5037681;28;1143;-59
2023/05/05 12:40:47;;;;;;;;;;;;;;;17.13;47.96;100975.75;5028009;28;1127;-59
2023/05/05 12:43:26;;;;;;;;;;;;;;;16.61;48.23;100978.31;5037867;28;1205;-58
2023/05/05 12:45:59;;;;;;;;;;;;;;;16.50;47.51;100971.13;5038512;28;1058;-60
2023/05/05 12:48:25;;;;;;;;;;;;;;;17.60;48.08;100960.94;5039569;28;1066;-59